Time;durP1;ratioP1;P1;durP2;ratioP2;P2;SDS_P1;SDS_P2;PMS_P1;PMS_P2;Temp;Humidity;BMP_temperature;BMP_pressure;BME280_temperature;BME280_humidity;BME280_pressure;Samples;Min_cycle;Max_cycle;Signal;HPM_P1;HPM_P2
2021/04/22 00:00:18;;;;;;;4.38;3.97;;;;;;;9.11;74.30;98116.84;5033298;28;20038;-76
2021/04/22 00:02:44;;;;;;;7.75;4.15;;;;;;;9.07;74.50;98121.22;5034205;28;20041;-75
2021/04/22 00:05:34;;;;;;;4.90;4.13;;;;;;;9.07;74.31;98105.66;5036523;28;20029;-75
2021/04/22 00:08:01;;;;;;;5.07;4.22;;;;;;;9.15;74.32;98109.69;5033425;28;20056;-76
2021/04/22 00:10:56;;;;;;;4.93;3.63;;;;;;;9.25;73.97;98115.09;5032926;28;20072;-75
2021/04/22 00:13:24;;;;;;;3.83;3.45;;;;;;;9.24;74.10;98110.72;5032855;28;20477;-75
2021/04/22 00:15:52;;;;;;;5.25;4.70;;;;;;;9.22;73.92;98098.47;5033335;28;20116;-75
2021/04/22 00:18:17;;;;;;;5.03;3.95;;;;;;;9.28;74.15;98105.53;5034070;28;20577;-76
2021/04/22 00:20:43;;;;;;;6.90;4.50;;;;;;;9.18;74.56;98095.50;5034324;28;20081;-76
2021/04/22 00:23:11;;;;;;;5.30;4.25;;;;;;;9.19;74.55;98099.88;5032785;28;20079;-76
2021/04/22 00:25:37;;;;;;;5.82;4.32;;;;;;;9.17;74.92;98104.78;5032486;28;20026;-75
2021/04/22 00:28:04;;;;;;;6.15;4.18;;;;;;;9.09;74.99;98099.91;5032134;28;20045;-75
2021/04/22 00:30:30;;;;;;;7.75;5.28;;;;;;;9.13;75.09;98098.25;5032347;28;20112;-75
2021/04/22 00:32:56;;;;;;;13.43;4.35;;;;;;;9.11;75.05;98095.00;5032158;28;20513;-75
2021/04/22 00:35:22;;;;;;;5.47;4.03;;;;;;;9.17;75.09;98082.16;5032109;28;20065;-76
2021/04/22 00:37:47;;;;;;;5.88;4.15;;;;;;;9.18;74.97;98100.94;5032612;28;20113;-75
2021/04/22 00:40:17;;;;;;;5.90;4.50;;;;;;;9.08;75.61;98090.91;5032491;28;20025;-75
2021/04/22 00:42:43;;;;;;;6.20;4.90;;;;;;;9.04;75.59;98094.50;5046584;28;20037;-78
2021/04/22 00:45:09;;;;;;;8.25;4.80;;;;;;;9.00;75.80;98093.44;5032256;28;20539;-77
2021/04/22 00:47:37;;;;;;;7.70;4.53;;;;;;;8.96;75.96;98095.91;5047402;28;20474;-75
2021/04/22 00:50:04;;;;;;;7.30;4.50;;;;;;;8.94;76.57;98091.81;5031879;28;20033;-75
2021/04/22 00:52:30;;;;;;;9.18;4.53;;;;;;;8.87;76.16;98083.13;5032220;28;20034;-77
2021/04/22 00:54:55;;;;;;;6.28;4.75;;;;;;;8.82;76.87;98091.34;5032263;28;20071;-75
2021/04/22 00:57:21;;;;;;;5.72;5.07;;;;;;;8.79;77.30;98091.91;5031753;28;20563;-75
2021/04/22 00:59:46;;;;;;;5.45;3.80;;;;;;;8.55;78.07;98087.09;5031716;28;20021;-75
2021/04/22 01:02:16;;;;;;;7.88;4.40;;;;;;;8.44;79.12;98085.50;5032489;28;20438;-75
2021/04/22 01:04:47;;;;;;;9.25;5.07;;;;;;;8.39;79.42;98085.53;5047806;28;20026;-75
2021/04/22 01:07:16;;;;;;;6.65;5.47;;;;;;;8.37;79.75;98089.63;5048118;28;20120;-76
2021/04/22 01:09:42;;;;;;;7.55;4.93;;;;;;;8.39;79.69;98080.09;5031987;28;20030;-76
2021/04/22 01:12:10;;;;;;;6.30;4.85;;;;;;;8.48;79.12;98091.22;5032250;28;20030;-76
2021/04/22 01:14:36;;;;;;;9.65;5.65;;;;;;;8.44;79.57;98090.16;5032028;28;20037;-75
2021/04/22 01:17:01;;;;;;;8.13;4.57;;;;;;;8.39;79.88;98082.00;5031721;28;20042;-75
2021/04/22 01:19:27;;;;;;;7.57;5.25;;;;;;;8.29;80.11;98088.31;5031594;28;20052;-77
2021/04/22 01:21:53;;;;;;;7.80;4.60;;;;;;;8.30;80.69;98084.47;5031661;28;20042;-76
2021/04/22 01:24:19;;;;;;;6.25;4.75;;;;;;;8.33;80.47;98089.34;5032638;28;20025;-75
2021/04/22 01:26:45;;;;;;;5.78;4.85;;;;;;;8.24;80.77;98088.25;5031830;28;20061;-76
2021/04/22 01:29:11;;;;;;;4.78;4.10;;;;;;;8.26;81.00;98086.09;5032594;28;20048;-76
2021/04/22 01:31:37;;;;;;;6.40;5.15;;;;;;;8.16;81.34;98088.03;5031880;28;20021;-76
2021/04/22 01:34:08;;;;;;;5.10;4.38;;;;;;;8.05;81.83;98081.78;5031976;28;20036;-76
2021/04/22 01:36:42;;;;;;;6.97;4.97;;;;;;;8.05;82.13;98088.03;5031646;28;20031;-75
2021/04/22 01:39:09;;;;;;;6.45;5.03;;;;;;;7.97;82.32;98082.34;5031836;28;20068;-76
2021/04/22 01:41:35;;;;;;;5.38;4.40;;;;;;;7.94;82.59;98081.00;5031927;28;20037;-75
2021/04/22 01:44:01;;;;;;;6.93;5.20;;;;;;;7.89;82.54;98077.47;5047005;28;20441;-76
2021/04/22 01:46:26;;;;;;;5.78;4.28;;;;;;;7.94;82.86;98085.63;5030422;28;20049;-76
2021/04/22 01:48:52;;;;;;;6.70;4.63;;;;;;;7.96;82.81;98083.44;5031170;28;20169;-75
2021/04/22 01:51:18;;;;;;;5.95;4.35;;;;;;;7.94;82.78;98091.06;5031881;28;20033;-76
2021/04/22 01:53:44;;;;;;;8.48;4.45;;;;;;;7.94;82.91;98086.44;5030249;28;20386;-76
2021/04/22 01:56:09;;;;;;;7.53;4.80;;;;;;;7.84;83.33;98080.19;5032059;28;20022;-75
2021/04/22 01:58:35;;;;;;;6.75;5.00;;;;;;;7.83;83.79;98090.25;5032657;28;20025;-76
2021/04/22 02:01:02;;;;;;;5.97;4.53;;;;;;;7.86;83.71;98086.97;5031748;28;20038;-74
2021/04/22 02:03:31;;;;;;;6.97;5.03;;;;;;;7.92;83.09;98083.19;5031502;28;20037;-75
2021/04/22 02:05:56;;;;;;;4.22;3.83;;;;;;;7.94;83.23;98082.91;5032680;28;20037;-75
2021/04/22 02:08:23;;;;;;;4.40;3.95;;;;;;;7.95;82.98;98079.09;5017991;28;20492;-77
2021/04/22 02:10:48;;;;;;;7.28;3.80;;;;;;;7.89;83.47;98074.75;5032986;28;20033;-75
2021/04/22 02:13:16;;;;;;;5.63;4.57;;;;;;;7.77;83.60;98072.28;5026121;28;20018;-75
2021/04/22 02:15:42;;;;;;;6.07;3.70;;;;;;;7.81;83.44;98070.66;5014503;28;20060;-76
2021/04/22 02:18:07;;;;;;;4.05;3.22;;;;;;;7.78;83.24;98067.66;5016358;28;20105;-80
2021/04/22 02:20:34;;;;;;;4.32;3.83;;;;;;;7.76;83.23;98069.84;5018874;28;20435;-75
2021/04/22 02:23:00;;;;;;;4.38;3.78;;;;;;;7.84;83.03;98069.28;5014912;28;20371;-76
2021/04/22 02:25:27;;;;;;;5.00;3.80;;;;;;;7.82;82.92;98055.16;5022326;28;20022;-78
2021/04/22 02:27:54;;;;;;;4.13;3.60;;;;;;;7.76;82.91;98062.50;5035448;28;20067;-76
2021/04/22 02:30:25;;;;;;;4.07;3.47;;;;;;;7.75;82.87;98060.88;5046570;28;20086;-76
2021/04/22 02:32:52;;;;;;;4.18;3.75;;;;;;;7.69;82.81;98066.59;5031780;28;20088;-76
2021/04/22 02:35:23;;;;;;;4.65;3.45;;;;;;;7.71;83.20;98075.28;5031475;28;20049;-76
2021/04/22 02:37:49;;;;;;;3.90;3.25;;;;;;;7.68;83.42;98064.94;5031256;28;20478;-75
2021/04/22 02:40:18;;;;;;;6.38;3.90;;;;;;;7.49;83.56;98041.00;5030735;28;20390;-75
2021/04/22 02:42:44;;;;;;;4.55;3.58;;;;;;;7.59;83.69;98056.53;5030888;28;20037;-76
2021/04/22 02:45:15;;;;;;;8.38;4.45;;;;;;;7.62;83.75;98055.97;5032326;28;20030;-76
2021/04/22 02:47:40;;;;;;;6.88;3.67;;;;;;;7.62;84.00;98055.16;5033360;28;20025;-74
2021/04/22 02:50:09;;;;;;;3.90;3.40;;;;;;;7.57;83.88;98044.28;5033900;28;20029;-75
2021/04/22 02:52:34;;;;;;;5.53;4.10;;;;;;;7.52;84.06;98048.63;5032361;28;20057;-76
2021/04/22 02:54:59;;;;;;;5.28;4.32;;;;;;;7.48;84.53;98052.19;5033094;28;20056;-76
2021/04/22 02:57:25;;;;;;;5.28;3.83;;;;;;;7.48;84.47;98052.19;5035199;28;20474;-76
2021/04/22 02:59:51;;;;;;;4.65;3.97;;;;;;;7.50;84.35;98050.00;5038430;28;20089;-76
2021/04/22 03:02:16;;;;;;;9.40;3.90;;;;;;;7.37;85.05;98045.94;5037874;28;20037;-76
2021/04/22 03:04:41;;;;;;;5.35;4.47;;;;;;;7.38;85.26;98047.56;5039812;28;20489;-75
2021/04/22 03:07:07;;;;;;;6.22;4.95;;;;;;;7.31;85.37;98055.19;5038824;28;20029;-76
2021/04/22 03:09:32;;;;;;;6.32;4.10;;;;;;;7.05;86.79;98041.84;5038816;28;20092;-76
2021/04/22 03:11:57;;;;;;;4.38;3.80;;;;;;;6.94;87.61;98043.72;5037697;28;20021;-76
2021/04/22 03:14:23;;;;;;;5.68;4.43;;;;;;;6.92;87.51;98041.25;5033828;28;20040;-76
2021/04/22 03:16:48;;;;;;;7.50;5.00;;;;;;;6.95;87.19;98048.09;5034270;28;20037;-75
2021/04/22 03:19:14;;;;;;;10.00;5.05;;;;;;;6.88;87.44;98042.09;5037614;28;20037;-76
2021/04/22 03:21:40;;;;;;;4.93;4.28;;;;;;;6.92;87.81;98048.63;5040764;28;20132;-75
2021/04/22 03:24:06;;;;;;;5.43;4.32;;;;;;;6.91;87.78;98055.13;5036420;28;20090;-76
2021/04/22 03:26:31;;;;;;;7.65;5.25;;;;;;;6.90;87.58;98058.94;5034341;28;20029;-76
2021/04/22 03:28:56;;;;;;;7.70;5.75;;;;;;;6.79;88.18;98058.13;5034372;28;20028;-74
2021/04/22 03:31:22;;;;;;;5.72;5.00;;;;;;;6.65;88.11;98045.28;5034145;28;20067;-76
2021/04/22 03:33:47;;;;;;;6.70;4.97;;;;;;;6.72;88.48;98064.88;5034472;28;20060;-75
2021/04/22 03:36:13;;;;;;;5.82;4.20;;;;;;;6.66;88.59;98057.78;5035026;28;20032;-76
2021/04/22 03:38:38;;;;;;;7.65;5.10;;;;;;;6.52;88.79;98062.91;5035987;28;20458;-76
2021/04/22 03:41:04;;;;;;;5.72;4.22;;;;;;;6.33;89.31;98043.53;5035435;28;20028;-74
2021/04/22 03:43:29;;;;;;;8.80;6.38;;;;;;;6.22;90.00;98060.06;5033455;28;20033;-75
2021/04/22 03:45:54;;;;;;;8.07;5.95;;;;;;;6.18;90.30;98057.06;5033538;28;20029;-75
2021/04/22 03:48:20;;;;;;;8.38;6.13;;;;;;;6.18;90.48;98058.97;5032790;28;20101;-75
2021/04/22 03:50:45;;;;;;;7.68;6.18;;;;;;;6.11;90.90;98059.19;5032758;28;20029;-76
2021/04/22 03:53:11;;;;;;;9.25;6.10;;;;;;;6.25;90.36;98056.81;5033345;28;20576;-76
2021/04/22 03:55:36;;;;;;;7.03;5.60;;;;;;;6.30;89.80;98054.94;5033643;28;20104;-76
2021/04/22 03:58:02;;;;;;;7.65;6.03;;;;;;;6.28;89.91;98062.56;5034238;28;20032;-76
2021/04/22 04:00:28;;;;;;;10.15;6.57;;;;;;;6.36;89.73;98067.47;5033598;28;20389;-76
2021/04/22 04:02:53;;;;;;;9.23;6.53;;;;;;;6.25;89.81;98051.41;5017807;28;20025;-76
2021/04/22 04:05:19;;;;;;;6.78;5.13;;;;;;;6.33;89.40;98054.41;5013100;28;20056;-75
2021/04/22 04:07:44;;;;;;;;;;;;;;;6.38;88.94;98062.59;5013750;28;20032;-76
2021/04/22 04:10:10;;;;;;;8.25;5.45;;;;;;;6.12;89.97;98058.13;5011595;28;19944;-74
2021/04/22 04:12:37;;;;;;;8.60;5.75;;;;;;;6.08;91.20;98072.47;5012666;28;20042;-75
2021/04/22 04:15:05;;;;;;;8.07;6.05;;;;;;;6.26;91.21;98072.88;5011812;28;20022;-76
2021/04/22 04:17:30;;;;;;;10.98;6.28;;;;;;;6.21;90.59;98059.25;5012616;28;20084;-76
2021/04/22 04:19:56;;;;;;;9.60;6.38;;;;;;;6.25;90.61;98071.22;5013084;28;20458;-74
2021/04/22 04:22:21;;;;;;;9.82;6.78;;;;;;;6.33;90.17;98080.75;5013369;28;20035;-75
2021/04/22 04:24:47;;;;;;;12.20;7.40;;;;;;;6.29;89.56;98077.78;5013585;28;20029;-76
2021/04/22 04:27:12;;;;;;;33.47;18.05;;;;;;;6.19;89.75;98072.28;5013252;28;20497;-76
2021/04/22 04:29:37;;;;;;;29.75;19.13;;;;;;;5.90;89.36;98066.44;5013587;28;20022;-76
2021/04/22 04:32:03;;;;;;;96.00;56.40;;;;;;;6.04;88.89;98083.06;5011360;28;20116;-77
2021/04/22 04:34:28;;;;;;;;;;;;;;;6.23;88.41;98091.59;5013535;28;20391;-76
2021/04/22 04:36:54;;;;;;;64.40;37.35;;;;;;;6.31;87.90;98083.75;5013227;28;19925;-75
2021/04/22 04:39:19;;;;;;;32.85;20.42;;;;;;;6.34;87.40;98085.13;5013564;28;20026;-75
2021/04/22 04:41:45;;;;;;;31.80;15.60;;;;;;;6.41;86.67;98082.97;5011679;28;20121;-75
2021/04/22 04:44:11;;;;;;;22.00;13.25;;;;;;;6.47;85.97;98085.47;5011598;28;20434;-74
2021/04/22 04:46:37;;;;;;;30.70;14.63;;;;;;;6.53;85.90;98088.19;5012308;28;20034;-76
2021/04/22 04:49:06;;;;;;;24.33;13.32;;;;;;;6.78;84.70;98099.13;5011571;28;20144;-74
2021/04/22 04:51:31;;;;;;;16.98;11.18;;;;;;;6.89;83.76;98092.66;5012717;28;20026;-75
2021/04/22 04:53:57;;;;;;;20.08;11.95;;;;;;;7.08;83.02;98098.41;5022434;28;20493;-75
2021/04/22 04:56:22;;;;;;;24.58;13.02;;;;;;;7.07;81.63;98099.50;5032326;28;20033;-75
2021/04/22 04:58:52;;;;;;;22.10;13.02;;;;;;;7.21;81.07;98106.84;5030513;28;20160;-75
2021/04/22 05:01:18;;;;;;;25.55;15.30;;;;;;;7.34;79.73;98108.22;5036026;28;20112;-77
2021/04/22 05:03:43;;;;;;;16.23;10.57;;;;;;;7.51;78.59;98101.44;5037138;28;20038;-78
2021/04/22 05:06:09;;;;;;;10.27;8.40;;;;;;;7.77;77.34;98117.78;5033117;28;20029;-76
2021/04/22 05:08:35;;;;;;;16.73;9.38;;;;;;;7.88;76.86;98109.31;5031042;28;20362;-79
2021/04/22 05:11:00;;;;;;;9.25;7.05;;;;;;;7.96;75.26;98100.59;5032243;28;20025;-76
2021/04/22 05:13:27;;;;;;;13.18;6.57;;;;;;;7.90;75.77;98111.75;5033210;28;20029;-75
2021/04/22 05:15:52;;;;;;;7.78;6.20;;;;;;;7.89;75.55;98104.69;5035348;28;20018;-76
2021/04/22 05:18:18;;;;;;;8.40;5.93;;;;;;;7.79;76.04;98110.16;5036260;28;20033;-75
2021/04/22 05:20:43;;;;;;;8.95;6.53;;;;;;;7.77;75.99;98109.63;5032350;28;20052;-75
2021/04/22 05:23:09;;;;;;;9.52;6.60;;;;;;;7.91;75.80;98121.56;5031415;28;20029;-82
2021/04/22 05:25:34;;;;;;;12.63;8.50;;;;;;;8.17;75.18;98131.34;5033564;28;20061;-76
2021/04/22 05:27:59;;;;;;;18.80;10.05;;;;;;;8.35;74.63;98124.53;5032845;28;20017;-78
2021/04/22 05:30:25;;;;;;;14.75;9.15;;;;;;;8.50;73.39;98125.28;5033799;28;20034;-79
2021/04/22 05:32:51;;;;;;;12.40;7.78;;;;;;;8.58;72.25;98129.38;5032751;28;20044;-78
2021/04/22 05:35:17;;;;;;;10.10;7.35;;;;;;;8.93;71.78;98136.56;5029228;28;20033;-76
2021/04/22 05:37:42;;;;;;;12.05;7.28;;;;;;;8.94;71.40;98139.03;5030962;28;20358;-76
2021/04/22 05:40:11;;;;;;;10.25;7.57;;;;;;;8.81;71.92;98149.72;5036533;28;20552;-74
2021/04/22 05:42:36;;;;;;;13.73;7.30;;;;;;;8.63;72.81;98132.06;5030414;28;20088;-75
2021/04/22 05:45:03;;;;;;;14.15;6.78;;;;;;;8.72;71.99;98140.47;5029215;28;20037;-75
2021/04/22 05:47:29;;;;;;;14.57;7.05;;;;;;;8.83;71.52;98142.09;5030922;28;20025;-75
2021/04/22 05:49:54;;;;;;;13.90;7.93;;;;;;;9.09;70.89;98146.31;5030531;28;20037;-77
2021/04/22 05:52:19;;;;;;;13.57;6.80;;;;;;;9.21;69.98;98144.03;5029803;28;20041;-75
2021/04/22 05:54:45;;;;;;;11.75;7.32;;;;;;;9.51;69.09;98141.16;5032143;28;20362;-75
2021/04/22 05:57:10;;;;;;;8.15;6.05;;;;;;;9.66;67.68;98132.84;5032561;28;20029;-77
2021/04/22 05:59:36;;;;;;;9.57;5.72;;;;;;;10.23;65.93;98139.47;5033098;28;20052;-90
2021/04/22 06:02:03;;;;;;;7.75;5.32;;;;;;;10.80;63.95;98143.22;5036715;28;20076;-90
2021/04/22 06:04:32;;;;;;;12.65;7.40;;;;;;;11.11;62.54;98145.28;5034224;28;20038;-73
2021/04/22 06:06:57;;;;;;;10.77;6.43;;;;;;;10.68;63.37;98141.72;5033601;28;20052;-74
2021/04/22 06:09:22;;;;;;;10.77;6.13;;;;;;;11.01;62.13;98139.13;5031205;28;20053;-76
2021/04/22 06:11:48;;;;;;;9.05;5.05;;;;;;;11.20;60.97;98143.53;5029405;28;20029;-81
2021/04/22 06:14:14;;;;;;;9.52;4.63;;;;;;;11.46;60.77;98143.16;5033071;28;20029;-81
2021/04/22 06:16:39;;;;;;;10.88;5.80;;;;;;;11.45;60.49;98142.34;5030460;28;20067;-76
2021/04/22 06:19:05;;;;;;;11.15;7.30;;;;;;;11.37;60.52;98143.00;5029666;28;20105;-76
2021/04/22 06:21:31;;;;;;;7.47;5.70;;;;;;;11.12;61.80;98144.16;5029178;28;20402;-75
2021/04/22 06:23:57;;;;;;;7.07;4.93;;;;;;;10.87;62.12;98143.69;5029315;28;20069;-75
2021/04/22 06:26:23;;;;;;;5.13;4.63;;;;;;;10.63;63.23;98144.50;5028961;28;20124;-74
2021/04/22 06:28:50;;;;;;;5.80;4.68;;;;;;;10.93;63.10;98137.06;5029618;28;20018;-78
2021/04/22 06:31:16;;;;;;;9.25;4.80;;;;;;;10.88;63.23;98148.88;5029727;28;20013;-76
2021/04/22 06:33:41;;;;;;;16.10;4.20;;;;;;;10.86;63.59;98131.13;5032826;28;20032;-76
2021/04/22 06:36:07;;;;;;;8.57;4.57;;;;;;;11.13;62.71;98128.56;5032535;28;20056;-76
2021/04/22 06:38:32;;;;;;;14.18;4.90;;;;;;;11.41;62.16;98135.81;5032939;28;20104;-76
2021/04/22 06:40:58;;;;;;;11.27;5.28;;;;;;;11.10;63.37;98132.72;5033050;28;20028;-76
2021/04/22 06:43:23;;;;;;;13.95;5.45;;;;;;;11.20;63.29;98145.44;5033735;28;20074;-75
2021/04/22 06:45:48;;;;;;;11.20;7.10;;;;;;;11.39;62.69;98140.81;5032422;28;20044;-76
2021/04/22 06:48:15;;;;;;;8.45;5.00;;;;;;;11.50;62.58;98142.25;5032829;28;20029;-76
2021/04/22 06:50:42;;;;;;;10.88;4.68;;;;;;;11.69;61.55;98137.59;5032620;28;20021;-75
2021/04/22 06:53:08;;;;;;;12.75;4.88;;;;;;;11.67;61.62;98130.78;5033273;28;20028;-76
2021/04/22 06:55:35;;;;;;;6.97;4.47;;;;;;;11.85;61.62;98138.19;5032912;28;20029;-76
2021/04/22 06:58:03;;;;;;;10.85;5.20;;;;;;;11.93;61.57;98132.06;5032875;28;20033;-75
2021/04/22 07:00:36;;;;;;;10.18;5.30;;;;;;;12.30;59.95;98139.34;5033371;28;20107;-75
2021/04/22 07:03:02;;;;;;;7.20;4.35;;;;;;;12.28;59.92;98136.06;5032323;28;20022;-75
2021/04/22 07:05:27;;;;;;;5.13;4.15;;;;;;;12.65;59.64;98141.44;5033169;28;20025;-76
2021/04/22 07:07:53;;;;;;;8.27;4.70;;;;;;;13.07;58.21;98134.81;5032718;28;20037;-76
2021/04/22 07:10:18;;;;;;;5.53;4.57;;;;;;;13.69;56.75;98140.63;5029804;28;20033;-75
2021/04/22 07:12:44;;;;;;;8.98;4.40;;;;;;;13.71;56.05;98141.09;5032994;28;20065;-75
2021/04/22 07:15:10;;;;;;;10.43;5.70;;;;;;;14.52;54.41;98145.41;5033667;28;20037;-76
2021/04/22 07:17:36;;;;;;;18.35;4.80;;;;;;;14.43;54.30;98148.13;5034499;28;20379;-75
2021/04/22 07:20:11;;;;;;;6.22;4.07;;;;;;;15.03;52.36;98142.84;5037855;28;20049;-76
2021/04/22 07:22:36;;;;;;;4.22;3.83;;;;;;;15.48;51.02;98148.16;5033812;28;20044;-74
2021/04/22 07:25:03;;;;;;;8.93;4.22;;;;;;;15.53;50.22;98148.84;5032977;28;20025;-75
2021/04/22 07:27:28;;;;;;;5.00;3.75;;;;;;;14.97;52.60;98146.88;5031364;28;20030;-75
2021/04/22 07:29:54;;;;;;;11.18;4.88;;;;;;;14.55;53.29;98143.94;5033287;28;20420;-74
2021/04/22 07:32:20;;;;;;;9.38;4.32;;;;;;;16.10;49.57;98151.41;5032698;28;20029;-75
2021/04/22 07:34:47;;;;;;;8.68;3.95;;;;;;;16.64;47.69;98140.78;5032972;28;20041;-76
2021/04/22 07:37:14;;;;;;;20.40;5.22;;;;;;;17.42;45.10;98148.38;5032856;28;20084;-76
2021/04/22 07:39:40;;;;;;;6.90;3.67;;;;;;;17.21;45.97;98143.94;5032043;28;20033;-75
2021/04/22 07:42:06;;;;;;;7.78;3.65;;;;;;;16.86;46.46;98143.28;5030608;28;20079;-75
2021/04/22 07:44:32;;;;;;;6.05;3.42;;;;;;;16.62;46.82;98141.13;5031719;28;20029;-76
2021/04/22 07:46:57;;;;;;;4.60;3.08;;;;;;;17.30;44.81;98141.94;5031147;28;20111;-75
2021/04/22 07:49:23;;;;;;;3.78;2.97;;;;;;;17.97;42.80;98148.16;5032164;28;20029;-75
2021/04/22 07:51:48;;;;;;;2.90;2.63;;;;;;;18.82;40.22;98144.88;5031326;28;20120;-73
2021/04/22 07:54:13;;;;;;;7.65;1.40;;;;;;;20.51;36.39;98143.81;5032808;28;20536;-74
2021/04/22 07:56:40;;;;;;;1.35;1.25;;;;;;;20.20;36.08;98139.72;5032658;28;20470;-75
2021/04/22 07:59:05;;;;;;;1.40;1.30;;;;;;;20.42;35.76;98140.38;5033294;28;20021;-74
2021/04/22 08:01:31;;;;;;;2.78;1.15;;;;;;;20.98;34.78;98141.09;5033285;28;20022;-73
2021/04/22 08:03:56;;;;;;;2.17;0.93;;;;;;;21.21;34.94;98142.88;5031126;28;20033;-72
2021/04/22 08:06:22;;;;;;;1.42;1.02;;;;;;;21.76;32.14;98138.22;5031012;28;20080;-74
2021/04/22 08:08:48;;;;;;;1.10;1.00;;;;;;;22.01;31.96;98142.38;5032712;28;20032;-73
2021/04/22 08:11:13;;;;;;;4.10;1.33;;;;;;;21.69;32.83;98132.47;5032439;28;20117;-73
2021/04/22 08:13:39;;;;;;;1.63;1.20;;;;;;;21.53;32.26;98140.06;5032545;28;20030;-74
2021/04/22 08:16:04;;;;;;;1.92;1.15;;;;;;;21.76;31.31;98135.44;5032415;28;20461;-74
2021/04/22 08:18:30;;;;;;;1.35;1.00;;;;;;;21.06;32.77;98131.72;5030936;28;20420;-73
2021/04/22 08:20:57;;;;;;;2.13;1.10;;;;;;;21.40;33.07;98132.97;5031605;28;20049;-73
2021/04/22 08:23:24;;;;;;;1.20;1.00;;;;;;;22.05;32.04;98143.28;5031912;28;20025;-73
2021/04/22 08:25:55;;;;;;;6.35;1.48;;;;;;;22.36;30.88;98145.09;5032537;28;20022;-73
2021/04/22 08:28:22;;;;;;;1.13;1.08;;;;;;;21.94;31.84;98133.84;5031961;28;20108;-72
2021/04/22 08:31:04;;;;;;;1.85;1.40;;;;;;;22.10;31.89;98136.59;5032250;28;20456;-74
2021/04/22 08:33:33;;;;;;;1.20;1.10;;;;;;;22.26;31.93;98140.09;5031832;28;20024;-72
2021/04/22 08:35:58;;;;;;;1.52;1.20;;;;;;;22.89;30.57;98140.56;5031963;28;20034;-74
2021/04/22 08:38:25;;;;;;;1.20;1.10;;;;;;;23.13;30.69;98133.78;5032062;28;20028;-73
2021/04/22 08:40:52;;;;;;;2.05;0.90;;;;;;;23.85;29.33;98137.31;5031453;28;20029;-74
2021/04/22 08:43:18;;;;;;;1.17;1.05;;;;;;;22.40;31.61;98140.38;5031713;28;20038;-73
2021/04/22 08:45:45;;;;;;;2.80;1.23;;;;;;;21.80;32.49;98127.97;5031722;28;20033;-77
2021/04/22 08:48:11;;;;;;;1.15;1.05;;;;;;;22.42;32.10;98124.91;5031727;28;20116;-72
2021/04/22 08:50:38;;;;;;;2.42;1.23;;;;;;;22.01;31.81;98127.63;5031593;28;20029;-72
2021/04/22 08:53:07;;;;;;;1.20;1.10;;;;;;;22.28;32.02;98127.41;5031271;28;20026;-74
2021/04/22 08:55:34;;;;;;;1.52;1.25;;;;;;;22.53;31.76;98129.88;5030683;28;20041;-73
2021/04/22 08:58:03;;;;;;;1.08;1.00;;;;;;;23.64;30.51;98125.84;5031287;28;20367;-75
2021/04/22 09:00:33;;;;;;;2.92;2.05;;;;;;;22.10;32.16;98125.44;5031931;28;20478;-73
2021/04/22 09:02:58;;;;;;;1.75;1.13;;;;;;;22.80;31.22;98129.66;5031563;28;20463;-73
2021/04/22 09:05:24;;;;;;;1.50;0.90;;;;;;;23.10;30.87;98123.34;5030247;28;20029;-73
2021/04/22 09:07:50;;;;;;;3.22;1.20;;;;;;;22.69;30.88;98119.44;5031694;28;20014;-74
2021/04/22 09:10:19;;;;;;;5.07;1.60;;;;;;;23.37;30.45;98111.84;5031498;28;20083;-73
2021/04/22 09:13:03;;;;;;;1.77;1.17;;;;;;;23.00;30.93;98116.41;5032214;28;20045;-74
2021/04/22 09:15:30;;;;;;;0.93;0.82;;;;;;;22.88;31.35;98122.19;5032827;28;20033;-75
2021/04/22 09:18:16;;;;;;;1.25;1.10;;;;;;;23.86;29.29;98110.97;5031875;28;20164;-75
2021/04/22 09:20:51;;;;;;;1.88;1.40;;;;;;;24.20;29.17;98121.03;5031948;28;20053;-74
2021/04/22 09:23:24;;;;;;;1.90;1.23;;;;;;;23.87;29.61;98123.78;5032133;28;20030;-73
2021/04/22 09:25:57;;;;;;;1.20;1.10;;;;;;;23.86;29.89;98120.19;5031990;28;20045;-73
2021/04/22 09:28:42;;;;;;;2.05;1.02;;;;;;;23.14;30.66;98125.03;5031135;28;20026;-73
2021/04/22 09:31:09;;;;;;;3.30;1.40;;;;;;;23.45;30.12;98116.41;5032628;28;20052;-75
2021/04/22 09:33:37;;;;;;;1.45;1.25;;;;;;;23.04;30.20;98120.09;5030004;28;20049;-75
2021/04/22 09:36:08;;;;;;;3.28;1.17;;;;;;;23.22;30.81;98126.75;5031415;28;20728;-74
2021/04/22 09:38:33;;;;;;;1.15;1.05;;;;;;;23.96;30.38;98127.09;5031342;28;20189;-74
2021/04/22 09:41:12;;;;;;;3.83;1.50;;;;;;;23.64;30.02;98121.06;5033728;28;20028;-73
2021/04/22 09:43:39;;;;;;;1.17;1.08;;;;;;;24.92;28.58;98118.66;5032183;28;20401;-73
2021/04/22 09:46:04;;;;;;;2.20;1.33;;;;;;;24.21;29.22;98113.47;5030875;28;20504;-74
2021/04/22 09:48:32;;;;;;;5.38;1.20;;;;;;;23.28;29.80;98108.50;5031013;28;20021;-74
2021/04/22 09:51:03;;;;;;;1.52;1.08;;;;;;;23.03;30.58;98112.88;5030788;28;20064;-73
2021/04/22 09:53:28;;;;;;;2.10;1.38;;;;;;;23.94;30.12;98113.50;5029565;28;20164;-73
2021/04/22 09:55:58;;;;;;;2.60;1.33;;;;;;;23.61;29.79;98104.25;5029803;28;20116;-73
2021/04/22 09:58:26;;;;;;;2.50;1.23;;;;;;;23.64;29.94;98098.72;5033163;28;20025;-74
2021/04/22 10:00:51;;;;;;;1.35;1.05;;;;;;;23.59;29.10;98109.41;5031434;28;20026;-75
2021/04/22 10:03:18;;;;;;;1.50;1.30;;;;;;;24.17;27.80;98107.81;5030632;28;20048;-73
2021/04/22 10:05:43;;;;;;;1.83;1.33;;;;;;;23.49;29.13;98096.91;5030837;28;20407;-74
2021/04/22 10:08:09;;;;;;;1.50;1.35;;;;;;;22.38;30.20;98098.94;5017016;28;20026;-73
2021/04/22 10:10:36;;;;;;;1.17;1.08;;;;;;;22.84;30.61;98093.41;5014684;28;20044;-74
2021/04/22 10:13:05;;;;;;;3.30;1.00;;;;;;;22.94;30.36;98088.03;5014593;28;20104;-73
2021/04/22 10:15:32;;;;;;;1.58;1.17;;;;;;;23.08;29.68;98087.47;5012857;28;20029;-74
2021/04/22 10:18:01;;;;;;;2.30;1.58;;;;;;;23.65;29.49;98077.19;5013038;28;20034;-74
2021/04/22 10:20:29;;;;;;;1.42;1.10;;;;;;;23.33;29.88;98080.28;5014491;28;20053;-73
2021/04/22 10:22:55;;;;;;;3.63;1.17;;;;;;;23.35;29.75;98074.31;5014506;28;20041;-73
2021/04/22 10:25:24;;;;;;;1.45;1.33;;;;;;;24.44;28.25;98077.75;5014642;28;20029;-74
2021/04/22 10:27:50;;;;;;;1.40;1.13;;;;;;;23.99;28.45;98076.03;5014964;28;20363;-74
2021/04/22 10:30:20;;;;;;;3.42;1.65;;;;;;;22.60;30.61;98065.88;5029432;28;20120;-73
2021/04/22 10:32:46;;;;;;;3.38;1.65;;;;;;;22.26;31.37;98062.88;5013794;28;20061;-75
2021/04/22 10:35:18;;;;;;;1.60;1.25;;;;;;;22.75;30.71;98051.00;5013230;28;20033;-75
2021/04/22 10:37:45;;;;;;;1.40;1.27;;;;;;;23.09;30.14;98060.31;5014203;28;20045;-74
2021/04/22 10:40:14;;;;;;;1.35;1.25;;;;;;;23.86;29.11;98044.72;5014407;28;20124;-75
2021/04/22 10:42:40;;;;;;;0.90;0.90;;;;;;;23.67;28.60;98058.03;5014220;28;20052;-73
2021/04/22 10:45:09;;;;;;;1.05;1.00;;;;;;;22.99;29.90;98056.22;5022363;28;20477;-74
2021/04/22 10:47:35;;;;;;;1.38;1.15;;;;;;;21.65;31.73;98056.41;5033184;28;20029;-75
2021/04/22 10:50:01;;;;;;;1.45;1.30;;;;;;;20.94;33.30;98043.63;5034029;28;20547;-74
2021/04/22 10:52:27;;;;;;;3.42;1.60;;;;;;;20.03;35.00;98039.25;5035535;28;20494;-75
2021/04/22 10:54:53;;;;;;;3.40;1.35;;;;;;;19.70;35.98;98031.19;5037448;28;20014;-75
2021/04/22 10:57:21;;;;;;;1.92;1.35;;;;;;;19.55;36.06;98037.47;5036623;28;20025;-75
2021/04/22 10:59:48;;;;;;;3.03;1.20;;;;;;;18.71;37.97;98037.25;5035505;28;20017;-74
2021/04/22 11:02:23;;;;;;;2.78;1.90;;;;;;;18.24;39.19;98033.22;5033766;28;20029;-73
2021/04/22 11:04:50;;;;;;;1.47;1.23;;;;;;;18.56;38.96;98032.38;5033894;28;20038;-76
2021/04/22 11:07:22;;;;;;;4.15;1.63;;;;;;;18.97;37.93;98025.78;5033830;28;20029;-75
2021/04/22 11:09:53;;;;;;;2.63;1.58;;;;;;;19.11;37.93;98031.78;5032848;28;20437;-75
2021/04/22 11:12:30;;;;;;;5.05;1.95;;;;;;;19.37;37.51;98033.34;5034534;28;20021;-74
2021/04/22 11:14:57;;;;;;;1.85;1.42;;;;;;;18.70;38.67;98020.97;5035540;28;20554;-74
2021/04/22 11:17:35;;;;;;;1.52;1.20;;;;;;;19.13;37.73;98020.34;5034713;28;20017;-74
2021/04/22 11:20:17;;;;;;;5.13;1.42;;;;;;;19.05;37.68;98010.97;5034660;28;20117;-75
2021/04/22 11:22:45;;;;;;;1.77;1.48;;;;;;;18.48;38.62;98007.53;5033587;28;20067;-76
2021/04/22 11:25:17;;;;;;;1.55;0.90;;;;;;;18.89;37.75;97998.19;5032827;28;20017;-75
2021/04/22 11:27:49;;;;;;;2.45;1.73;;;;;;;19.00;37.92;98007.66;5033203;28;20025;-75
2021/04/22 11:30:35;;;;;;;8.85;1.77;;;;;;;19.29;37.10;98003.78;5033572;28;20120;-73
2021/04/22 11:33:01;;;;;;;1.15;1.00;;;;;;;19.27;36.89;98004.94;5032958;28;20155;-76
2021/04/22 11:35:31;;;;;;;2.50;1.48;;;;;;;19.44;36.70;97990.00;5033146;28;20489;-74